Time;durP1;ratioP1;P1;durP2;ratioP2;P2;SDS_P1;SDS_P2;PMS_P1;PMS_P2;Temp;Humidity;BMP_temperature;BMP_pressure;BME280_temperature;BME280_humidity;BME280_pressure;Samples;Min_cycle;Max_cycle;Signal;HPM_P1;HPM_P2
2023/03/15 00:00:02;;;;;;;1.10;0.50;;;;;;;2.03;100.00;101069.75;5040881;28;20033;-66
2023/03/15 00:02:27;;;;;;;1.67;0.50;;;;;;;2.03;100.00;101069.75;5052768;28;20416;-65
2023/03/15 00:04:53;;;;;;;1.23;0.50;;;;;;;2.02;100.00;101063.72;5051777;28;20116;-64
2023/03/15 00:07:24;;;;;;;1.17;0.50;;;;;;;2.03;100.00;101070.59;5054154;28;20446;-65
2023/03/15 00:09:50;;;;;;;1.60;0.52;;;;;;;2.03;100.00;101079.97;5051792;28;20519;-65
2023/03/15 00:12:15;;;;;;;0.60;0.50;;;;;;;2.06;100.00;101092.06;5052840;28;20025;-65
2023/03/15 00:14:40;;;;;;;2.97;1.67;;;;;;;2.04;100.00;101079.16;5045790;28;20025;-64
2023/03/15 00:17:05;;;;;;;2.47;0.70;;;;;;;2.04;100.00;101068.94;5047143;28;20021;-65
2023/03/15 00:19:31;;;;;;;1.87;0.70;;;;;;;2.03;100.00;101064.63;5068973;28;20074;-65
2023/03/15 00:21:56;;;;;;;1.63;0.80;;;;;;;2.01;100.00;101058.50;5057541;28;20079;-65
2023/03/15 00:24:21;;;;;;;1.63;0.70;;;;;;;2.00;100.00;101064.38;5060386;28;20024;-65
2023/03/15 00:26:46;;;;;;;1.57;0.70;;;;;;;1.99;100.00;101077.97;5063224;28;20118;-65
2023/03/15 00:29:12;;;;;;;3.80;1.03;;;;;;;1.98;100.00;101074.50;5061220;28;20354;-65
2023/03/15 00:31:37;;;;;;;2.33;0.90;;;;;;;1.98;100.00;101071.94;5054562;28;20495;-65
2023/03/15 00:34:02;;;;;;;1.90;0.90;;;;;;;1.96;100.00;101070.09;5068364;28;20025;-65
2023/03/15 00:36:28;;;;;;;3.13;1.10;;;;;;;1.94;100.00;101079.31;5067265;28;20069;-65
2023/03/15 00:38:55;;;;;;;1.17;0.90;;;;;;;1.93;100.00;101078.41;5067948;28;20024;-65
2023/03/15 00:41:21;;;;;;;4.23;1.30;;;;;;;1.95;100.00;101086.19;5066429;28;20373;-66
2023/03/15 00:43:47;;;;;;;2.40;1.10;;;;;;;1.95;100.00;101081.97;5068186;28;20046;-65
2023/03/15 00:46:13;;;;;;;2.33;0.90;;;;;;;1.95;100.00;101081.97;5067035;28;20426;-65
2023/03/15 00:48:39;;;;;;;2.63;1.57;;;;;;;1.88;100.00;101078.09;5053380;28;20135;-65
2023/03/15 00:51:05;;;;;;;2.20;1.30;;;;;;;1.81;100.00;101081.00;5054860;28;20415;-65
2023/03/15 00:53:30;;;;;;;2.77;1.47;;;;;;;1.74;100.00;101071.09;5067410;28;20106;-66
2023/03/15 00:55:56;;;;;;;1.67;1.40;;;;;;;1.67;100.00;101072.34;5066350;28;20021;-66
2023/03/15 00:58:21;;;;;;;2.43;1.30;;;;;;;1.62;100.00;101077.09;5064444;28;20111;-65
2023/03/15 01:00:46;;;;;;;4.70;1.70;;;;;;;1.59;100.00;101076.88;5043020;28;20116;-65
2023/03/15 01:03:12;;;;;;;2.43;1.60;;;;;;;1.57;100.00;101078.44;5048648;28;20028;-65
2023/03/15 01:05:37;;;;;;;4.93;1.33;;;;;;;1.52;100.00;101072.09;5049178;28;20218;-65
2023/03/15 01:08:03;;;;;;;4.93;1.50;;;;;;;1.50;100.00;101071.09;5049392;28;20028;-65
2023/03/15 01:10:28;;;;;;;4.10;1.63;;;;;;;1.50;100.00;101071.09;5049380;28;20020;-65
2023/03/15 01:12:53;;;;;;;2.47;1.40;;;;;;;1.53;100.00;101068.78;5059584;28;20447;-65
2023/03/15 01:15:19;;;;;;;4.53;2.00;;;;;;;1.54;100.00;101068.00;5066822;28;20028;-64
2023/03/15 01:17:44;;;;;;;3.03;2.10;;;;;;;1.54;100.00;101068.00;5068199;28;20033;-65
2023/03/15 01:20:14;;;;;;;4.83;2.77;;;;;;;1.59;100.00;101071.78;5063508;28;20039;-65
2023/03/15 01:22:39;;;;;;;5.90;2.93;;;;;;;1.62;100.00;101072.00;5059303;28;20030;-65
2023/03/15 01:25:05;;;;;;;4.63;3.13;;;;;;;1.64;100.00;101085.78;5067499;28;20025;-65
2023/03/15 01:27:30;;;;;;;7.13;3.60;;;;;;;1.67;100.00;101091.09;5060377;28;20025;-65
2023/03/15 01:29:56;;;;;;;6.80;4.70;;;;;;;1.69;100.00;101093.78;5063984;28;20536;-65
2023/03/15 01:32:21;;;;;;;9.50;6.00;;;;;;;1.71;100.00;101101.56;5067482;28;20540;-65
2023/03/15 01:34:46;;;;;;;8.40;6.07;;;;;;;1.72;100.00;101100.78;5052543;28;20032;-65
2023/03/15 01:37:13;;;;;;;11.90;6.70;;;;;;;1.71;100.00;101097.31;5068044;28;20028;-65
2023/03/15 01:39:39;;;;;;;8.70;5.93;;;;;;;1.72;100.00;101100.78;5066867;28;20029;-65
2023/03/15 01:42:04;;;;;;;7.70;6.90;;;;;;;1.73;100.00;101105.09;5067851;28;20028;-65
2023/03/15 01:44:59;;;;;;;11.77;8.80;;;;;;;1.72;100.00;101103.31;5066330;28;20024;-65
2023/03/15 01:47:24;;;;;;;10.30;8.87;;;;;;;1.73;100.00;101102.53;5066272;28;20028;-65
2023/03/15 01:50:01;;;;;;;10.90;9.07;;;;;;;1.72;100.00;101108.44;5067658;28;20027;-65
2023/03/15 01:52:32;;;;;;;11.30;8.80;;;;;;;1.73;100.00;101100.88;5046833;28;20088;-65
2023/03/15 01:55:03;;;;;;;;;;;;;;;1.71;100.00;101111.78;5057644;28;20491;-65
2023/03/15 01:57:35;;;;;;;13.03;10.40;;;;;;;1.73;100.00;101107.66;5066518;28;19915;-65
2023/03/15 02:00:11;;;;;;;11.73;10.37;;;;;;;1.73;100.00;101106.00;5067729;28;20028;-65
2023/03/15 02:02:45;;;;;;;12.97;10.73;;;;;;;1.74;100.00;101119.66;5053843;28;20464;-65
2023/03/15 02:05:14;;;;;;;13.07;11.67;;;;;;;1.77;100.00;101117.31;5067371;28;20029;-65
2023/03/15 02:07:48;;;;;;;13.17;11.70;;;;;;;1.77;100.00;101120.78;5057631;28;20052;-65
2023/03/15 02:10:17;;;;;;;12.87;11.43;;;;;;;1.77;100.00;101122.44;5057780;28;20027;-65
2023/03/15 02:12:46;;;;;;;13.53;12.10;;;;;;;1.75;100.00;101130.00;5067909;28;20135;-65
2023/03/15 02:15:13;;;;;;;14.00;12.27;;;;;;;1.75;100.00;101137.66;5066385;28;20056;-65
2023/03/15 02:17:43;;;;;;;13.33;11.93;;;;;;;1.75;100.00;101130.00;5067241;28;20159;-65
2023/03/15 02:20:14;;;;;;;13.95;12.75;;;;;;;1.77;100.00;101138.66;5066891;28;20017;-65
2023/03/15 02:22:42;;;;;;;14.05;12.57;;;;;;;1.78;100.00;101135.31;5067115;28;20032;-65
2023/03/15 02:25:25;;;;;;;16.20;13.33;;;;;;;1.81;100.00;101150.00;5062005;28;20021;-65
2023/03/15 02:27:50;;;;;;;14.20;12.67;;;;;;;1.84;100.00;101145.09;5047937;28;20496;-65
2023/03/15 02:30:16;;;;;;;14.17;12.77;;;;;;;1.86;100.00;101146.09;5047799;28;20047;-64
2023/03/15 02:32:42;;;;;;;13.83;12.53;;;;;;;1.85;100.00;101136.69;5061101;28;20031;-65
2023/03/15 02:35:08;;;;;;;14.47;13.03;;;;;;;1.86;100.00;101148.66;5067202;28;20020;-65
2023/03/15 02:37:33;;;;;;;13.97;12.43;;;;;;;1.89;100.00;101153.13;5066515;28;20625;-65
2023/03/15 02:39:58;;;;;;;13.17;11.93;;;;;;;1.90;100.00;101150.69;5040263;28;20028;-65
2023/03/15 02:42:24;;;;;;;13.67;12.37;;;;;;;1.90;100.00;101153.22;5066909;28;20020;-64
2023/03/15 02:44:50;;;;;;;14.37;12.63;;;;;;;1.90;100.00;101149.78;5067139;28;20121;-65
2023/03/15 02:47:23;;;;;;;14.77;13.27;;;;;;;1.89;100.00;101151.44;5054234;28;20078;-65
2023/03/15 02:49:52;;;;;;;16.37;14.70;;;;;;;1.88;100.00;101149.66;5035344;28;20021;-65
2023/03/15 02:52:19;;;;;;;16.53;14.80;;;;;;;1.87;100.00;101155.53;5046782;28;20057;-65
2023/03/15 02:54:44;;;;;;;17.27;15.47;;;;;;;1.87;100.00;101155.53;5047955;28;20111;-65
2023/03/15 02:57:11;;;;;;;16.10;14.40;;;;;;;1.87;100.00;101162.34;5064276;28;20128;-65
2023/03/15 02:59:37;;;;;;;16.60;14.90;;;;;;;1.84;100.00;101160.44;5050811;28;20457;-65
2023/03/15 03:02:02;;;;;;;16.10;13.97;;;;;;;1.77;100.00;101169.34;5051522;28;20104;-65
2023/03/15 03:04:28;;;;;;;16.00;14.50;;;;;;;1.75;100.00;101169.97;5051310;28;20336;-65
2023/03/15 03:06:53;;;;;;;15.30;13.80;;;;;;;1.74;100.00;101169.13;5051841;28;20473;-65
2023/03/15 03:09:18;;;;;;;14.40;12.90;;;;;;;1.74;100.00;101173.31;5051150;28;20017;-65
2023/03/15 03:11:44;;;;;;;13.40;11.87;;;;;;;1.74;100.00;101178.44;5052660;28;20033;-65
2023/03/15 03:14:12;;;;;;;14.47;12.70;;;;;;;1.76;100.00;101187.13;5070373;28;20031;-65
2023/03/15 03:16:38;;;;;;;14.40;12.63;;;;;;;1.74;100.00;101189.56;5068948;28;20092;-65
2023/03/15 03:19:03;;;;;;;13.13;11.83;;;;;;;1.72;100.00;101201.34;5049466;28;20473;-65
2023/03/15 03:21:29;;;;;;;13.13;11.73;;;;;;;1.71;100.00;101206.34;5051600;28;20357;-65
2023/03/15 03:23:54;;;;;;;12.20;11.00;;;;;;;1.71;100.00;101214.00;5050735;28;20040;-65
2023/03/15 03:26:19;;;;;;;12.93;10.80;;;;;;;1.70;100.00;101213.09;5051447;28;20025;-65
2023/03/15 03:28:46;;;;;;;12.13;10.93;;;;;;;1.66;100.00;101219.66;5050861;28;20473;-65
2023/03/15 03:31:20;;;;;;;11.40;10.07;;;;;;;1.65;100.00;101220.44;5050230;28;20029;-65
2023/03/15 03:33:45;;;;;;;11.57;10.47;;;;;;;1.65;100.00;101235.78;5051037;28;20025;-65
2023/03/15 03:36:11;;;;;;;12.07;10.77;;;;;;;1.60;100.00;101229.41;5051212;28;20043;-65
2023/03/15 03:38:39;;;;;;;11.40;10.33;;;;;;;1.54;100.00;101227.31;5050359;28;20017;-65
2023/03/15 03:41:04;;;;;;;10.43;9.43;;;;;;;1.51;100.00;101226.19;5050798;28;20032;-65
2023/03/15 03:43:30;;;;;;;10.70;9.60;;;;;;;1.43;100.00;101239.25;5050508;28;20584;-65
2023/03/15 03:45:55;;;;;;;11.53;10.37;;;;;;;1.40;100.00;101238.13;5050240;28;20024;-65
2023/03/15 03:48:20;;;;;;;11.47;10.37;;;;;;;1.38;100.00;101243.13;5050389;28;20037;-65
2023/03/15 03:50:45;;;;;;;11.17;9.73;;;;;;;1.36;100.00;101251.44;5050755;28;20025;-65
2023/03/15 03:53:11;;;;;;;11.33;10.13;;;;;;;1.36;100.00;101252.34;5048443;28;20064;-65
2023/03/15 03:55:37;;;;;;;12.50;10.63;;;;;;;1.30;100.00;101247.66;5049505;28;20492;-65
2023/03/15 03:58:02;;;;;;;11.27;10.07;;;;;;;1.27;100.00;101254.19;5050114;28;20032;-65
2023/03/15 04:00:27;;;;;;;11.50;10.30;;;;;;;1.18;100.00;101249.25;5050092;28;20048;-65
2023/03/15 04:02:53;;;;;;;11.77;10.53;;;;;;;1.13;100.00;101254.03;5049573;28;20025;-65
2023/03/15 04:05:18;;;;;;;10.60;9.63;;;;;;;1.06;100.00;101256.88;5050090;28;20029;-65
2023/03/15 04:07:44;;;;;;;11.90;10.70;;;;;;;1.01;100.00;101261.59;5049291;28;20029;-65
2023/03/15 04:10:13;;;;;;;10.77;9.67;;;;;;;0.97;100.00;101262.16;5049907;28;20498;-65
2023/03/15 04:12:40;;;;;;;12.23;11.03;;;;;;;0.93;100.00;101270.34;5059027;28;20024;-65
2023/03/15 04:15:06;;;;;;;12.23;11.03;;;;;;;0.88;100.00;101277.63;5052888;28;20025;-65
2023/03/15 04:17:31;;;;;;;14.13;11.37;;;;;;;0.85;100.00;101286.72;5049529;28;20230;-64
2023/03/15 04:19:58;;;;;;;12.47;11.27;;;;;;;0.82;100.00;101282.25;5050000;28;20024;-65
2023/03/15 04:22:23;;;;;;;12.57;11.33;;;;;;;0.79;100.00;101292.22;5049778;28;20025;-65
2023/03/15 04:24:49;;;;;;;11.93;10.70;;;;;;;0.75;100.00;101287.63;5045499;28;20083;-64
2023/03/15 04:27:15;;;;;;;11.83;10.63;;;;;;;0.74;100.00;101302.06;5039074;28;20025;-65
2023/03/15 04:29:42;;;;;;;12.77;11.47;;;;;;;0.73;100.00;101296.81;5048501;28;20488;-65
2023/03/15 04:32:08;;;;;;;11.67;10.43;;;;;;;0.70;100.00;101300.03;5049360;28;20079;-65
2023/03/15 04:34:37;;;;;;;11.97;10.67;;;;;;;0.68;100.00;101305.03;5049916;28;20111;-65
2023/03/15 04:37:03;;;;;;;12.03;10.83;;;;;;;0.66;100.00;101306.56;5049941;28;20090;-64
2023/03/15 04:39:28;;;;;;;12.50;11.20;;;;;;;0.63;100.00;101315.63;5049755;28;20029;-65
2023/03/15 04:41:54;;;;;;;12.53;10.57;;;;;;;0.58;100.00;101316.13;5049677;28;20365;-65
2023/03/15 04:44:19;;;;;;;12.83;10.47;;;;;;;0.55;100.00;101315.91;5049631;28;20024;-64
2023/03/15 04:46:45;;;;;;;12.37;11.07;;;;;;;0.51;100.00;101313.88;5049833;28;20104;-65
2023/03/15 04:49:10;;;;;;;12.40;11.10;;;;;;;0.46;100.00;101322.81;5049130;28;21372;-65
2023/03/15 04:51:35;;;;;;;13.57;10.93;;;;;;;0.42;100.00;101323.31;5049216;28;20385;-65
2023/03/15 04:54:01;;;;;;;13.10;11.63;;;;;;;0.39;100.00;101331.63;5049335;28;20079;-64
2023/03/15 04:56:28;;;;;;;14.97;11.07;;;;;;;0.37;100.00;101328.06;5049456;28;20096;-65
2023/03/15 04:58:54;;;;;;;13.33;10.77;;;;;;;0.34;100.00;101327.81;5049537;28;20029;-65
2023/03/15 05:01:24;;;;;;;12.33;11.07;;;;;;;0.33;100.00;101331.09;5047976;28;20389;-65
2023/03/15 05:03:49;;;;;;;13.00;11.10;;;;;;;0.31;100.00;101337.75;5048745;28;20048;-65
2023/03/15 05:06:14;;;;;;;12.13;10.33;;;;;;;0.28;100.00;101335.84;5048940;28;20103;-65
2023/03/15 05:08:39;;;;;;;13.33;11.07;;;;;;;0.26;100.00;101342.47;5049882;28;20028;-65
2023/03/15 05:11:05;;;;;;;13.13;10.60;;;;;;;0.21;100.00;101349.75;5048992;28;20082;-64
2023/03/15 05:13:30;;;;;;;13.93;10.83;;;;;;;0.21;100.00;101347.22;5063049;28;20033;-64
2023/03/15 05:15:56;;;;;;;14.73;12.10;;;;;;;0.25;100.00;101352.56;5058120;28;20553;-65
2023/03/15 05:18:22;;;;;;;12.63;10.37;;;;;;;0.29;100.00;101350.38;5068310;28;20094;-65
2023/03/15 05:20:47;;;;;;;13.13;10.63;;;;;;;0.26;100.00;101362.88;5068906;28;20024;-65
2023/03/15 05:23:13;;;;;;;11.10;9.80;;;;;;;0.24;100.00;101359.31;5068082;28;20499;-65
2023/03/15 05:25:38;;;;;;;10.50;9.40;;;;;;;0.20;100.00;101359.81;5068637;28;20040;-65
2023/03/15 05:28:04;;;;;;;11.77;10.00;;;;;;;0.10;100.00;101369.25;5067939;28;20392;-64
2023/03/15 05:30:30;;;;;;;10.93;9.57;;;;;;;0.03;100.00;101369.50;5059787;28;20386;-65
2023/03/15 05:32:55;;;;;;;12.00;10.00;;;;;;;-0.06;100.00;101367.09;5051751;28;20393;-65
2023/03/15 05:35:25;;;;;;;11.83;10.10;;;;;;;-0.13;100.00;101369.88;5054698;28;20036;-65
2023/03/15 05:37:51;;;;;;;10.20;8.70;;;;;;;-0.15;100.00;101376.50;5054343;28;20070;-65
2023/03/15 05:40:17;;;;;;;12.07;9.80;;;;;;;-0.18;100.00;101381.34;5057768;28;20037;-64
2023/03/15 05:42:42;;;;;;;11.17;9.57;;;;;;;-0.20;100.00;101382.88;5053112;28;20032;-64
2023/03/15 05:45:08;;;;;;;10.83;9.47;;;;;;;-0.22;100.00;101384.41;5052138;28;20029;-64
2023/03/15 05:47:34;;;;;;;11.33;9.77;;;;;;;-0.26;100.00;101379.03;5054403;28;20040;-65
2023/03/15 05:49:59;;;;;;;10.90;9.80;;;;;;;-0.27;100.00;101382.34;5054820;28;20032;-65
2023/03/15 05:52:25;;;;;;;12.77;9.63;;;;;;;-0.31;100.00;101380.31;5053720;28;20418;-65
2023/03/15 05:54:50;;;;;;;10.97;9.17;;;;;;;-0.33;100.00;101386.03;5056157;28;20085;-65
2023/03/15 05:57:15;;;;;;;10.73;9.40;;;;;;;-0.37;100.00;101385.78;5054399;28;20025;-64
2023/03/15 05:59:41;;;;;;;10.13;9.03;;;;;;;-0.39;100.00;101391.50;5056603;28;20028;-65
2023/03/15 06:02:06;;;;;;;12.30;9.10;;;;;;;-0.42;100.00;101398.88;5062284;28;20122;-65
2023/03/15 06:04:31;;;;;;;11.13;8.97;;;;;;;-0.44;100.00;101402.94;5055769;28;20104;-65
2023/03/15 06:06:57;;;;;;;10.23;9.13;;;;;;;-0.46;100.00;101409.53;5057815;28;20027;-65
2023/03/15 06:09:22;;;;;;;10.17;9.07;;;;;;;-0.44;100.00;101416.56;5046033;28;20090;-65
2023/03/15 06:11:47;;;;;;;11.27;8.87;;;;;;;-0.45;100.00;101417.31;5061052;28;20051;-64
2023/03/15 06:14:12;;;;;;;12.60;10.37;;;;;;;-0.45;100.00;101419.00;5058403;28;20468;-64
2023/03/15 06:16:38;;;;;;;12.10;10.47;;;;;;;-0.39;100.00;101427.16;5059464;28;20492;-65
2023/03/15 06:19:03;;;;;;;11.57;9.93;;;;;;;-0.36;100.00;101427.44;5057300;28;20209;-65
2023/03/15 06:21:28;;;;;;;11.07;9.73;;;;;;;-0.36;100.00;101419.78;5060046;28;20028;-65
2023/03/15 06:23:54;;;;;;;13.40;10.37;;;;;;;-0.34;100.00;101430.97;5062867;28;20393;-65
2023/03/15 06:26:20;;;;;;;11.80;9.50;;;;;;;-0.29;100.00;101432.25;5063191;28;20328;-65
2023/03/15 06:28:46;;;;;;;12.77;11.13;;;;;;;-0.25;100.00;101439.41;5034312;28;20487;-65
2023/03/15 06:31:12;;;;;;;11.87;10.03;;;;;;;-0.18;100.00;101442.50;5046448;28;20025;-65
2023/03/15 06:33:39;;;;;;;12.00;10.40;;;;;;;-0.12;100.00;101453.19;5046692;28;20465;-65
2023/03/15 06:36:05;;;;;;;11.27;10.10;;;;;;;-0.03;100.00;101464.19;5057139;28;20521;-65
2023/03/15 06:38:31;;;;;;;13.00;11.03;;;;;;;0.05;100.00;101471.59;5059538;28;20124;-65
2023/03/15 06:40:59;;;;;;;13.10;11.00;;;;;;;0.16;100.00;101475.97;5056093;28;20123;-65
2023/03/15 06:43:24;;;;;;;11.73;10.50;;;;;;;0.28;100.00;101478.63;5040790;28;20021;-64
2023/03/15 06:45:52;;;;;;;12.07;10.53;;;;;;;0.37;100.00;101486.16;5038430;28;20414;-65
2023/03/15 06:48:17;;;;;;;13.27;10.87;;;;;;;0.40;100.00;101486.41;5041481;28;20530;-65
2023/03/15 06:50:42;;;;;;;13.00;11.33;;;;;;;0.44;100.00;101488.47;5037646;28;20052;-65
2023/03/15 06:53:08;;;;;;;15.27;12.80;;;;;;;0.51;100.00;101499.16;5054882;28;20429;-65
2023/03/15 06:55:33;;;;;;;13.63;11.37;;;;;;;0.58;100.00;101496.38;5046379;28;20056;-65
2023/03/15 06:57:58;;;;;;;13.93;11.67;;;;;;;0.68;100.00;101498.03;5053149;28;20103;-65
2023/03/15 07:00:24;;;;;;;13.43;11.40;;;;;;;0.81;100.00;101502.50;5053398;28;20098;-65
2023/03/15 07:02:49;;;;;;;17.00;12.17;;;;;;;0.94;100.00;101502.72;5063041;28;20024;-64
2023/03/15 07:05:15;;;;;;;13.23;10.90;;;;;;;1.03;100.00;101504.25;5048819;28;20032;-65
2023/03/15 07:07:40;;;;;;;12.97;11.47;;;;;;;1.10;100.00;101509.06;5061285;28;20031;-65
2023/03/15 07:10:06;;;;;;;13.00;10.43;;;;;;;1.15;100.00;101518.00;5042373;28;20037;-65
2023/03/15 07:12:31;;;;;;;12.03;10.73;;;;;;;1.18;100.00;101518.28;5054389;28;20056;-65
2023/03/15 07:14:57;;;;;;;11.83;10.57;;;;;;;1.21;100.00;101525.28;5047561;28;20101;-64
2023/03/15 07:17:22;;;;;;;14.40;10.63;;;;;;;1.21;100.00;101526.97;5056465;28;20434;-65
2023/03/15 07:19:47;;;;;;;11.73;10.37;;;;;;;1.23;100.00;101539.06;5056802;28;20021;-65
2023/03/15 07:22:13;;;;;;;11.80;10.40;;;;;;;1.30;100.00;101548.09;5047491;28;20516;-65
2023/03/15 07:24:38;;;;;;;13.07;10.90;;;;;;;1.41;100.00;101549.88;5037005;28;20017;-65
2023/03/15 07:27:03;;;;;;;14.83;10.87;;;;;;;1.54;100.00;101548.31;5047519;28;20021;-65
2023/03/15 07:29:29;;;;;;;13.03;10.30;;;;;;;1.66;100.00;101553.50;5047018;28;20061;-65
2023/03/15 07:31:54;;;;;;;12.50;11.20;;;;;;;1.81;100.00;101548.72;5045383;28;20057;-66
2023/03/15 07:34:20;;;;;;;14.57;11.00;;;;;;;1.96;100.00;101560.94;5048307;28;20276;-65
2023/03/15 07:36:46;;;;;;;13.57;11.10;;;;;;;2.07;100.00;101557.53;5051790;28;20029;-65
2023/03/15 07:39:11;;;;;;;11.30;10.10;;;;;;;2.16;100.00;101563.38;5048320;28;20029;-65
2023/03/15 07:41:37;;;;;;;11.00;9.87;;;;;;;2.22;100.00;101570.66;5052130;28;20043;-65
2023/03/15 07:44:02;;;;;;;11.67;10.43;;;;;;;2.24;100.00;101570.75;5054184;28;20926;-65
2023/03/15 07:46:27;;;;;;;11.07;9.97;;;;;;;2.27;100.00;101576.13;5049669;28;20084;-65
2023/03/15 07:48:53;;;;;;;10.83;9.73;;;;;;;2.66;100.00;101578.19;5042851;28;20426;-65
2023/03/15 07:51:18;;;;;;;14.13;11.00;;;;;;;3.28;100.00;101582.78;5057827;28;20016;-65
2023/03/15 07:53:43;;;;;;;13.23;9.63;;;;;;;3.89;100.00;101579.41;5066086;28;20046;-65
2023/03/15 07:56:09;;;;;;;10.90;8.83;;;;;;;4.63;100.00;101589.59;5062150;28;20668;-65
2023/03/15 07:58:34;;;;;;;9.27;8.43;;;;;;;5.53;100.00;101584.34;5040518;28;20481;-65
2023/03/15 08:00:59;;;;;;;9.10;7.95;;;;;;;6.28;100.00;101588.16;5042890;28;20021;-65
2023/03/15 08:03:25;;;;;;;7.43;6.70;;;;;;;6.99;100.00;101588.91;5043017;28;20024;-65
2023/03/15 08:05:51;;;;;;;7.63;6.53;;;;;;;7.65;100.00;101598.66;5054573;28;20622;-66
2023/03/15 08:08:16;;;;;;;8.30;6.70;;;;;;;8.20;100.00;101605.91;5044877;28;20144;-65
2023/03/15 08:10:43;;;;;;;6.25;5.65;;;;;;;8.68;99.89;101621.38;5055481;28;20489;-66
2023/03/15 08:13:09;;;;;;;6.47;5.25;;;;;;;9.01;97.14;101633.38;5058300;28;20051;-65
2023/03/15 08:15:34;;;;;;;7.53;5.50;;;;;;;9.31;95.46;101634.84;5060580;28;20461;-65
2023/03/15 08:17:59;;;;;;;7.13;5.07;;;;;;;9.55;93.04;101635.16;5052192;28;20021;-66
2023/03/15 08:20:26;;;;;;;7.75;5.10;;;;;;;9.85;89.75;101634.91;5049650;28;20385;-66
2023/03/15 08:22:51;;;;;;;7.25;5.15;;;;;;;10.07;88.63;101638.47;5062143;28;20036;-66
2023/03/15 08:25:20;;;;;;;6.95;4.50;;;;;;;10.32;85.19;101647.41;5052968;28;20385;-66
2023/03/15 08:27:45;;;;;;;4.78;4.15;;;;;;;10.49;81.76;101639.53;5060767;28;20031;-66
2023/03/15 08:30:12;;;;;;;6.05;3.95;;;;;;;10.62;80.96;101640.97;5063853;28;20024;-66
2023/03/15 08:32:39;;;;;;;4.53;4.03;;;;;;;10.73;79.59;101659.59;5063487;28;20025;-66
2023/03/15 08:35:06;;;;;;;5.93;3.88;;;;;;;10.86;78.49;101652.38;5059896;28;20031;-66
2023/03/15 08:37:31;;;;;;;4.85;3.88;;;;;;;10.95;79.28;101650.19;5060614;28;20029;-66
2023/03/15 08:40:04;;;;;;;3.67;3.38;;;;;;;11.08;77.79;101656.75;5038454;28;20155;-66
2023/03/15 08:42:29;;;;;;;8.45;3.45;;;;;;;11.20;76.77;101664.22;5058643;28;20150;-66
2023/03/15 08:44:58;;;;;;;5.32;3.00;;;;;;;11.24;76.33;101668.69;5067350;28;20032;-66
2023/03/15 08:47:23;;;;;;;3.75;2.70;;;;;;;11.32;74.47;101660.34;5063264;28;20036;-66
2023/03/15 08:49:51;;;;;;;4.97;2.90;;;;;;;11.33;73.94;101667.31;5062814;28;20376;-66
2023/03/15 08:52:17;;;;;;;4.25;2.72;;;;;;;11.32;74.54;101665.53;5050908;28;20520;-66
2023/03/15 08:54:43;;;;;;;4.80;2.60;;;;;;;11.46;74.33;101672.19;5049022;28;20029;-67
2023/03/15 08:57:08;;;;;;;3.45;1.80;;;;;;;11.45;73.06;101673.03;5036351;28;20118;-66
2023/03/15 08:59:34;;;;;;;4.50;1.77;;;;;;;11.46;72.01;101669.59;5057305;28;20016;-67
2023/03/15 09:02:00;;;;;;;2.60;1.30;;;;;;;11.53;71.81;101671.63;5044340;28;20458;-66
2023/03/15 09:04:25;;;;;;;3.47;1.70;;;;;;;11.45;68.50;101677.31;5060079;28;20020;-67
2023/03/15 09:06:50;;;;;;;3.58;1.60;;;;;;;11.51;69.74;101688.84;5049736;28;20544;-66
2023/03/15 09:09:16;;;;;;;3.42;1.70;;;;;;;11.30;68.77;101678.44;5064469;28;20460;-66
2023/03/15 09:11:41;;;;;;;3.00;1.75;;;;;;;11.31;71.08;101682.81;5050683;28;20035;-66
2023/03/15 09:14:07;;;;;;;4.95;1.42;;;;;;;11.27;68.99;101683.50;5037859;28;20021;-66
2023/03/15 09:16:32;;;;;;;4.22;1.90;;;;;;;11.19;68.88;101679.72;5035764;28;20082;-68
2023/03/15 09:18:58;;;;;;;3.78;1.77;;;;;;;11.16;68.37;101685.63;5040086;28;20493;-68
2023/03/15 09:21:24;;;;;;;3.15;1.38;;;;;;;11.16;67.97;101685.63;5049156;28;20022;-67
2023/03/15 09:23:49;;;;;;;3.72;1.85;;;;;;;11.01;69.42;101684.16;5052892;28;20028;-68
2023/03/15 09:26:15;;;;;;;4.50;2.33;;;;;;;10.84;66.83;101682.53;5045951;28;20030;-68
2023/03/15 09:28:40;;;;;;;6.32;2.45;;;;;;;10.77;67.61;101679.69;5035534;28;20741;-69
2023/03/15 09:31:06;;;;;;;3.75;1.95;;;;;;;10.70;67.83;101690.59;5025927;28;20022;-68
2023/03/15 09:33:32;;;;;;;4.65;1.90;;;;;;;10.71;70.05;101681.97;5026986;28;20021;-69
2023/03/15 09:35:58;;;;;;;5.60;2.72;;;;;;;10.68;72.18;101676.66;5027883;28;20449;-68
2023/03/15 09:38:23;;;;;;;6.72;2.47;;;;;;;10.50;69.18;101690.56;5030937;28;20087;-68
2023/03/15 09:40:49;;;;;;;3.63;1.80;;;;;;;10.44;69.03;101685.06;5031417;28;20437;-67
2023/03/15 09:43:17;;;;;;;4.57;1.70;;;;;;;10.39;70.62;101689.13;5027445;28;20028;-67
2023/03/15 09:45:59;;;;;;;11.25;2.40;;;;;;;10.31;68.54;101694.84;5028534;28;20051;-66
2023/03/15 09:48:42;;;;;;;5.53;1.90;;;;;;;10.06;68.66;101695.38;5029463;28;20028;-67
2023/03/15 09:51:12;;;;;;;4.28;2.00;;;;;;;9.81;69.30;101697.69;5034827;28;20021;-67
2023/03/15 09:54:12;;;;;;;3.83;1.73;;;;;;;9.50;71.82;101693.56;5027667;28;20094;-67
2023/03/15 09:56:55;;;;;;;3.05;1.85;;;;;;;9.44;74.72;101694.16;5027182;28;20176;-67
2023/03/15 09:59:26;;;;;;;6.18;1.80;;;;;;;9.22;75.13;101699.94;5027733;28;20036;-67
2023/03/15 10:01:54;;;;;;;3.63;1.75;;;;;;;8.86;71.35;101695.50;5026914;28;20028;-66
2023/03/15 10:04:20;;;;;;;3.45;1.50;;;;;;;8.59;72.49;101701.88;5026923;28;20482;-67
2023/03/15 10:06:53;;;;;;;3.78;1.35;;;;;;;8.35;74.52;101709.13;5030154;28;20033;-66
2023/03/15 10:09:22;;;;;;;5.68;1.92;;;;;;;8.09;77.28;101698.25;5029435;28;20025;-67
2023/03/15 10:12:09;;;;;;;5.13;2.00;;;;;;;7.93;79.36;101695.69;5034658;28;20025;-66
2023/03/15 10:14:55;;;;;;;12.98;2.42;;;;;;;7.80;82.37;101698.38;5029841;28;20501;-67
2023/03/15 10:17:36;;;;;;;5.95;1.92;;;;;;;7.66;82.66;101701.03;5030113;28;20029;-66
2023/03/15 10:20:12;;;;;;;5.00;1.80;;;;;;;7.60;81.83;101700.69;5034559;28;20430;-67
2023/03/15 10:22:53;;;;;;;3.72;1.55;;;;;;;7.51;82.85;101700.16;5040843;28;20232;-67
2023/03/15 10:25:25;;;;;;;6.93;2.00;;;;;;;7.47;85.75;101708.50;5035458;28;20068;-67
2023/03/15 10:28:00;;;;;;;5.25;2.33;;;;;;;7.40;84.64;101703.00;5027576;28;20116;-66
2023/03/15 10:30:32;;;;;;;4.10;1.17;;;;;;;7.30;84.58;101706.72;5028776;28;20044;-66
2023/03/15 10:33:05;;;;;;;6.75;2.22;;;;;;;7.18;84.06;101701.72;5033100;28;20056;-67
2023/03/15 10:35:31;;;;;;;7.40;1.70;;;;;;;7.07;83.09;101703.66;5031058;28;20021;-66
2023/03/15 10:37:57;;;;;;;4.88;2.40;;;;;;;7.07;86.90;101702.75;5026898;28;20029;-66
2023/03/15 10:40:45;;;;;;;3.65;1.70;;;;;;;7.05;88.23;101701.81;5028258;28;20079;-67
2023/03/15 10:43:26;;;;;;;5.20;2.03;;;;;;;7.02;86.54;101709.31;5028582;28;20389;-66
2023/03/15 10:46:03;;;;;;;6.80;1.70;;;;;;;6.97;85.68;101709.06;5034588;28;20032;-67
2023/03/15 10:49:01;;;;;;;3.28;1.17;;;;;;;6.92;86.68;101716.53;5026599;28;20036;-67
2023/03/15 10:51:31;;;;;;;5.75;2.25;;;;;;;6.82;88.53;101727.94;5025615;28;20545;-67
2023/03/15 10:54:12;;;;;;;4.95;1.40;;;;;;;6.70;85.74;101720.34;5028277;28;20122;-66
2023/03/15 10:56:43;;;;;;;6.90;1.60;;;;;;;6.63;82.57;101731.06;5031628;28;20144;-66
2023/03/15 10:59:23;;;;;;;6.55;1.27;;;;;;;6.58;84.18;101735.03;5039762;28;20029;-67
2023/03/15 11:01:51;;;;;;;9.10;1.13;;;;;;;6.52;79.45;101740.69;5053677;28;20056;-67
2023/03/15 11:04:29;;;;;;;4.25;1.20;;;;;;;6.43;85.32;101748.72;5027406;28;20075;-67
2023/03/15 11:07:02;;;;;;;5.93;1.73;;;;;;;6.35;85.68;101747.34;5031383;28;20029;-67
2023/03/15 11:09:41;;;;;;;6.78;1.73;;;;;;;6.28;83.22;101747.75;5058729;28;20024;-67
2023/03/15 11:12:10;;;;;;;5.32;1.52;;;;;;;6.17;83.20;101740.19;5057110;28;20063;-66
2023/03/15 11:14:41;;;;;;;4.50;1.83;;;;;;;6.04;87.90;101750.47;5066619;28;20035;-66
2023/03/15 11:17:16;;;;;;;3.17;1.33;;;;;;;5.93;90.21;101753.25;5043410;28;20052;-67